createdAt,value
2023-04-19T00:00:32.405Z,102171.09
2023-04-19T00:02:58.988Z,102160.09
2023-04-19T00:05:25.726Z,102161.41
2023-04-19T00:07:52.140Z,102166.81
2023-04-19T00:10:18.720Z,102149.38
2023-04-19T00:12:46.468Z,102156.19
2023-04-19T00:15:13.199Z,102151.28
2023-04-19T00:17:39.680Z,102155.66
2023-04-19T00:20:06.809Z,102148.38
2023-04-19T00:22:33.187Z,102161.06
2023-04-19T00:24:59.745Z,102154.41
2023-04-19T00:27:26.125Z,102157.13
2023-04-19T00:29:53.829Z,102158.06
2023-04-19T00:32:20.230Z,102163.69
2023-04-19T00:34:46.584Z,102160.97
2023-04-19T00:37:12.973Z,102165.69
2023-04-19T00:39:39.337Z,102163.63
2023-04-19T00:42:05.773Z,102163.31
2023-04-19T00:44:32.262Z,102167.50
2023-04-19T00:47:00.348Z,102165.22
2023-04-19T00:49:27.649Z,102165.06
2023-04-19T00:51:54.339Z,102170.06
2023-04-19T00:54:20.931Z,102172.56
2023-04-19T00:56:47.494Z,102181.19
2023-04-19T00:59:15.176Z,102177.41
2023-04-19T01:01:41.613Z,102177.69
2023-04-19T01:04:09.570Z,102168.69
2023-04-19T01:06:36.352Z,102175.91
2023-04-19T01:09:02.921Z,102173.25
2023-04-19T01:11:29.408Z,102176.22
2023-04-19T01:13:56.408Z,102178.88
2023-04-19T01:16:23.120Z,102172.72
2023-04-19T01:18:49.567Z,102173.06
2023-04-19T01:21:17.302Z,102173.47
2023-04-19T01:23:45.353Z,102164.84
2023-04-19T01:26:11.682Z,102170.66
2023-04-19T01:28:38.259Z,102168.03
2023-04-19T01:31:04.719Z,102171.22
2023-04-19T01:33:31.186Z,102177.16
2023-04-19T01:35:57.616Z,102168.31
2023-04-19T01:38:24.010Z,102171.38
2023-04-19T01:40:51.708Z,102172.53
2023-04-19T01:43:18.281Z,102172.97
2023-04-19T01:45:44.759Z,102167.78
2023-04-19T01:48:11.287Z,102174.19
2023-04-19T01:50:37.696Z,102165.63
2023-04-19T01:53:04.144Z,102170.50
2023-04-19T01:55:30.490Z,102164.00
2023-04-19T01:57:58.198Z,102168.97
2023-04-19T02:00:25.172Z,102164.00
2023-04-19T02:02:51.645Z,102159.03
2023-04-19T02:05:18.217Z,102153.25
2023-04-19T02:07:44.654Z,102154.19
2023-04-19T02:10:11.378Z,102147.59
2023-04-19T02:12:38.052Z,102153.44
2023-04-19T02:15:07.682Z,102152.34
2023-04-19T02:17:34.150Z,102160.47
2023-04-19T02:20:00.588Z,102159.97
2023-04-19T02:22:27.386Z,102164.56
2023-04-19T02:24:53.753Z,102163.69
2023-04-19T02:27:20.095Z,102179.44
2023-04-19T02:29:46.456Z,102174.75
2023-04-19T02:32:14.271Z,102177.38
2023-04-19T02:34:40.618Z,102178.38
2023-04-19T02:37:06.995Z,102168.44
2023-04-19T02:39:33.403Z,102179.09
2023-04-19T02:41:59.804Z,102170.34
2023-04-19T02:44:26.221Z,102172.06
2023-04-19T02:46:52.976Z,102169.28
2023-04-19T02:49:21.309Z,102166.91
2023-04-19T02:51:47.748Z,102172.38
2023-04-19T02:54:14.509Z,102170.72
2023-04-19T02:56:41.156Z,102173.22
2023-04-19T02:59:07.599Z,102163.91
2023-04-19T03:01:34.003Z,102165.94
2023-04-19T03:04:00.566Z,102167.75
2023-04-19T03:06:28.422Z,102171.09
2023-04-19T03:08:54.881Z,102161.25
2023-04-19T03:11:21.231Z,102158.16
2023-04-19T03:13:47.614Z,102157.44
2023-04-19T03:16:14.140Z,102156.09
2023-04-19T03:18:40.697Z,102165.41
2023-04-19T03:21:07.100Z,102162.88
2023-04-19T03:23:34.802Z,102175.13
2023-04-19T03:26:01.180Z,102158.38
2023-04-19T03:28:28.128Z,102155.75
2023-04-19T03:30:54.570Z,102160.88
2023-04-19T03:33:20.950Z,102154.00
2023-04-19T03:35:47.355Z,102151.13
2023-04-19T03:38:13.797Z,102147.91
2023-04-19T03:40:41.488Z,102150.31
2023-04-19T03:43:07.839Z,102148.50
2023-04-19T03:45:34.261Z,102152.38
2023-04-19T03:48:02.762Z,102145.44
2023-04-19T03:50:29.574Z,102144.09
2023-04-19T03:52:55.988Z,102146.66
2023-04-19T03:55:22.396Z,102146.66
2023-04-19T03:57:50.116Z,102150.19
2023-04-19T04:00:17.169Z,102148.97
2023-04-19T04:02:43.726Z,102150.13
2023-04-19T04:05:10.446Z,102150.44
2023-04-19T04:07:37.010Z,102149.72
2023-04-19T04:10:04.086Z,102151.41
2023-04-19T04:12:30.558Z,102142.88
2023-04-19T04:14:58.437Z,102136.16
2023-04-19T04:17:24.878Z,102135.22
2023-04-19T04:19:51.346Z,102139.78
2023-04-19T04:22:17.702Z,102148.16
2023-04-19T04:24:44.120Z,102145.19
2023-04-19T04:27:11.150Z,102145.50
2023-04-19T04:29:38.128Z,102144.19
2023-04-19T04:32:07.343Z,102143.84
2023-04-19T04:34:33.931Z,102139.28
2023-04-19T04:37:00.297Z,102146.03
2023-04-19T04:39:26.690Z,102143.63
2023-04-19T04:41:53.180Z,102143.03
2023-04-19T04:44:19.616Z,102143.75
2023-04-19T04:46:46.108Z,102147.81
2023-04-19T04:49:13.935Z,102142.38
2023-04-19T04:51:40.330Z,102147.78
2023-04-19T04:54:06.689Z,102144.72
2023-04-19T04:56:33.161Z,102152.34
2023-04-19T04:58:59.570Z,102161.22
2023-04-19T05:01:25.997Z,102158.16
2023-04-19T05:03:52.505Z,102154.38
2023-04-19T05:06:20.227Z,102154.59
2023-04-19T05:08:46.619Z,102155.75
2023-04-19T05:11:13.114Z,102149.84
2023-04-19T05:13:39.629Z,102153.19
2023-04-19T05:16:06.397Z,102149.84
2023-04-19T05:18:32.851Z,102161.25
2023-04-19T05:20:59.311Z,102158.03
2023-04-19T05:23:27.038Z,102152.13
2023-04-19T05:25:53.449Z,102158.59
2023-04-19T05:28:19.810Z,102152.53
2023-04-19T05:30:46.317Z,102150.97
2023-04-19T05:33:12.752Z,102153.66
2023-04-19T05:35:39.187Z,102155.16
2023-04-19T05:38:05.558Z,102151.56
2023-04-19T05:40:33.465Z,102145.09
2023-04-19T05:42:59.920Z,102146.84
2023-04-19T05:45:26.432Z,102146.09
2023-04-19T05:47:53.267Z,102140.91
2023-04-19T05:50:19.900Z,102147.44
2023-04-19T05:52:46.276Z,102147.25
2023-04-19T05:55:12.715Z,102151.09
2023-04-19T05:57:40.422Z,102141.50
2023-04-19T06:00:08.067Z,102148.06
2023-04-19T06:02:34.548Z,102149.88
2023-04-19T06:05:04.970Z,102142.00
2023-04-19T06:07:40.002Z,102138.13
2023-04-19T06:10:10.622Z,102150.38
2023-04-19T06:12:37.054Z,102143.94
2023-04-19T06:15:06.833Z,102143.25
2023-04-19T06:17:33.249Z,102143.03
2023-04-19T06:19:59.735Z,102148.75
2023-04-19T06:22:26.222Z,102141.34
2023-04-19T06:24:52.586Z,102138.81
2023-04-19T06:27:18.987Z,102141.34
2023-04-19T06:29:45.361Z,102132.41
2023-04-19T06:32:13.103Z,102123.94
2023-04-19T06:34:39.634Z,102126.59
2023-04-19T06:37:06.027Z,102136.66
2023-04-19T06:39:32.408Z,102127.59
2023-04-19T06:41:58.995Z,102123.81
2023-04-19T06:44:25.397Z,102129.06
2023-04-19T06:46:51.800Z,102125.38
2023-04-19T06:49:19.582Z,102135.16
2023-04-19T06:51:45.956Z,102120.59
2023-04-19T06:54:12.365Z,102119.91
2023-04-19T06:56:40.424Z,102128.13
2023-04-19T06:59:06.904Z,102124.22
2023-04-19T07:01:33.429Z,102106.13
2023-04-19T07:04:00.011Z,102113.84
2023-04-19T07:06:27.766Z,102123.28
2023-04-19T07:08:54.286Z,102113.25
2023-04-19T07:11:21.924Z,102112.56
2023-04-19T07:13:50.075Z,102110.22
2023-04-19T07:16:16.652Z,102112.84
2023-04-19T07:18:43.293Z,102115.53
2023-04-19T07:21:09.898Z,102112.69
2023-04-19T07:23:37.725Z,102101.28
2023-04-19T07:26:04.455Z,102099.63
2023-04-19T07:28:31.402Z,102095.34
2023-04-19T07:30:57.825Z,102097.59
2023-04-19T07:33:26.636Z,102089.53
2023-04-19T07:35:54.480Z,102086.91
2023-04-19T07:38:20.847Z,102091.47
2023-04-19T07:40:48.667Z,102085.91
2023-04-19T07:43:15.308Z,102077.97
2023-04-19T07:45:41.707Z,102077.69
2023-04-19T07:48:08.319Z,102070.72
2023-04-19T07:50:34.806Z,102075.31
2023-04-19T07:53:01.191Z,102073.75
2023-04-19T07:55:27.697Z,102077.81
2023-04-19T07:57:55.381Z,102078.06
2023-04-19T08:00:22.299Z,102067.66
2023-04-19T08:02:49.340Z,102066.63
2023-04-19T08:05:16.706Z,102055.56
2023-04-19T08:07:43.368Z,102063.94
2023-04-19T08:10:10.471Z,102072.94
2023-04-19T08:12:42.957Z,102062.16
2023-04-19T08:15:50.949Z,102062.13
2023-04-19T08:18:05.203Z,102048.50
2023-04-19T08:20:31.753Z,102058.41
2023-04-19T08:23:04.648Z,102051.78
2023-04-19T08:25:37.243Z,102048.41
2023-04-19T08:28:04.025Z,102037.03
2023-04-19T08:30:32.293Z,102046.06
2023-04-19T08:32:58.728Z,102034.41
2023-04-19T08:35:25.316Z,102054.94
2023-04-19T08:37:51.784Z,102045.91
2023-04-19T08:40:18.521Z,102053.19
2023-04-19T08:42:45.041Z,102045.38
2023-04-19T08:45:27.161Z,102039.78
2023-04-19T08:48:01.350Z,102043.25
2023-04-19T08:50:35.360Z,102053.66
2023-04-19T08:53:24.215Z,102025.50
2023-04-19T08:56:06.939Z,102031.72
2023-04-19T08:58:54.649Z,102033.88
2023-04-19T09:04:07.254Z,102013.63
2023-04-19T09:06:42.624Z,102029.25
2023-04-19T09:09:33.174Z,102020.66
2023-04-19T09:12:03.498Z,102020.66
2023-04-19T09:14:30.144Z,102024.19
2023-04-19T09:17:12.629Z,102014.88
2023-04-19T09:19:46.993Z,102002.53
2023-04-19T09:22:14.400Z,102008.00
2023-04-19T09:27:10.405Z,101996.22
2023-04-19T09:29:36.833Z,101984.50
2023-04-19T09:32:03.543Z,101979.09
2023-04-19T09:34:30.264Z,101985.63
2023-04-19T09:37:11.026Z,101984.34
2023-04-19T09:39:41.364Z,101968.75
2023-04-19T09:42:08.818Z,101969.25
2023-04-19T09:45:20.759Z,101964.91
2023-04-19T09:47:30.461Z,101955.00
2023-04-19T09:50:19.252Z,101950.13
2023-04-19T09:52:52.123Z,101952.53
2023-04-19T09:57:48.872Z,101941.91
2023-04-19T10:00:16.107Z,101915.25
2023-04-19T10:02:44.714Z,101922.94
2023-04-19T10:05:20.291Z,101926.94
2023-04-19T10:07:49.220Z,101915.56
2023-04-19T10:10:20.694Z,101911.53
2023-04-19T10:13:11.440Z,101903.19
2023-04-19T10:18:08.468Z,101908.69
2023-04-19T10:20:41.739Z,101889.13
2023-04-19T10:23:08.912Z,101881.22
2023-04-19T10:25:37.624Z,101886.72
2023-04-19T10:28:04.588Z,101879.03
2023-04-19T10:30:30.986Z,101875.84
2023-04-19T10:32:58.751Z,101879.63
2023-04-19T10:35:26.980Z,101864.09
2023-04-19T10:38:03.501Z,101855.25
2023-04-19T10:41:00.380Z,101849.88
2023-04-19T10:43:28.362Z,101853.16
2023-04-19T10:45:55.642Z,101860.00
2023-04-19T10:48:32.528Z,101838.47
2023-04-19T10:50:59.471Z,101850.00
2023-04-19T10:53:52.038Z,101849.41
2023-04-19T10:56:21.473Z,101854.53
2023-04-19T10:59:12.596Z,101848.81
2023-04-19T11:01:41.135Z,101842.06
2023-04-19T11:04:09.237Z,101826.22
2023-04-19T11:06:37.073Z,101813.38
2023-04-19T11:09:03.811Z,101816.84
2023-04-19T11:11:33.443Z,101818.44
2023-04-19T11:14:00.298Z,101798.75
2023-04-19T11:16:42.050Z,101808.09
2023-04-19T11:19:15.410Z,101807.94
2023-04-19T11:21:41.955Z,101796.34
2023-04-19T11:24:08.749Z,101796.38
2023-04-19T11:26:36.461Z,101804.25
2023-04-19T11:29:03.053Z,101797.59
2023-04-19T11:31:32.252Z,101800.13
2023-04-19T11:33:59.123Z,101791.31
2023-04-19T11:36:25.514Z,101794.06
2023-04-19T11:38:52.782Z,101793.06
2023-04-19T11:41:19.227Z,101784.19
2023-04-19T11:43:46.983Z,101780.66
2023-04-19T11:46:14.152Z,101779.00
2023-04-19T11:48:50.891Z,101785.06
2023-04-19T11:51:17.323Z,101761.13
2023-04-19T11:53:43.830Z,101773.34
2023-04-19T11:56:10.398Z,101769.34
2023-04-19T11:58:37.947Z,101771.84
2023-04-19T12:01:08.181Z,101767.28
2023-04-19T12:03:54.680Z,101763.53
2023-04-19T12:06:24.581Z,101750.78
2023-04-19T12:08:52.188Z,101755.66
2023-04-19T12:11:20.156Z,101758.88
2023-04-19T12:13:46.721Z,101756.31
2023-04-19T12:16:14.839Z,101750.81
2023-04-19T12:18:46.140Z,101744.44
2023-04-19T12:21:24.124Z,101744.84
2023-04-19T12:23:50.562Z,101744.38
2023-04-19T12:26:16.972Z,101737.97
2023-04-19T12:28:43.345Z,101744.00
2023-04-19T12:31:09.742Z,101740.69
2023-04-19T12:33:37.790Z,101734.88
2023-04-19T12:36:04.531Z,101723.22
2023-04-19T12:38:30.971Z,101723.91
2023-04-19T12:40:57.421Z,101738.31
2023-04-19T12:43:23.768Z,101728.69
2023-04-19T12:45:50.181Z,101737.25
2023-04-19T12:48:16.742Z,101713.16
2023-04-19T12:50:44.491Z,101726.47
2023-04-19T12:53:10.886Z,101709.72
2023-04-19T12:55:37.344Z,101710.91
2023-04-19T12:58:03.754Z,101731.81
2023-04-19T13:00:30.280Z,101703.44
2023-04-19T13:02:56.799Z,101709.41
2023-04-19T13:05:23.299Z,101711.56
2023-04-19T13:07:51.020Z,101699.59
2023-04-19T13:10:17.469Z,101695.16
2023-04-19T13:12:43.869Z,101703.59
2023-04-19T13:15:11.163Z,101702.22
2023-04-19T13:17:37.591Z,101693.81
2023-04-19T13:20:04.882Z,101694.88
2023-04-19T13:22:31.283Z,101701.47
2023-04-19T13:24:59.034Z,101696.91
2023-04-19T13:27:25.448Z,101708.22
2023-04-19T13:29:51.815Z,101689.97
2023-04-19T13:32:18.187Z,101691.69
2023-04-19T13:34:44.545Z,101689.97
2023-04-19T13:37:10.913Z,101686.88
2023-04-19T13:39:37.314Z,101678.34
2023-04-19T13:42:05.778Z,101669.56
2023-04-19T13:44:32.430Z,101667.09
2023-04-19T13:46:58.892Z,101678.56
2023-04-19T13:49:25.360Z,101665.47
2023-04-19T13:51:52.482Z,101662.72
2023-04-19T13:54:19.627Z,101673.59
2023-04-19T13:56:47.422Z,101670.81
2023-04-19T13:59:16.199Z,101671.13
2023-04-19T14:01:42.585Z,101693.72
2023-04-19T14:04:09.045Z,101668.88
2023-04-19T14:06:35.752Z,101672.56
2023-04-19T14:09:02.132Z,101661.91
2023-04-19T14:11:28.586Z,101661.66
2023-04-19T14:13:55.559Z,101656.56
2023-04-19T14:16:23.262Z,101652.19
2023-04-19T14:18:49.625Z,101653.09
2023-04-19T14:21:16.030Z,101661.72
2023-04-19T14:23:42.397Z,101657.25
2023-04-19T14:26:08.825Z,101661.91
2023-04-19T14:28:35.237Z,101652.00
2023-04-19T14:31:01.594Z,101633.66
2023-04-19T14:33:29.346Z,101641.00
2023-04-19T14:35:55.740Z,101637.06
2023-04-19T14:38:22.133Z,101629.88
2023-04-19T14:40:48.544Z,101631.59
2023-04-19T14:43:15.163Z,101620.06
2023-04-19T14:45:41.706Z,101635.25
2023-04-19T14:48:08.128Z,101634.16
2023-04-19T14:50:35.836Z,101627.47
2023-04-19T14:53:02.200Z,101631.47
2023-04-19T14:55:28.566Z,101633.63
2023-04-19T14:57:54.944Z,101626.44
2023-04-19T15:00:21.636Z,101617.66
2023-04-19T15:02:48.133Z,101621.34
2023-04-19T15:05:14.673Z,101619.34
2023-04-19T15:07:42.511Z,101614.59
2023-04-19T15:10:09.675Z,101622.22
2023-04-19T15:12:36.226Z,101620.28
2023-04-19T15:15:02.690Z,101618.03
2023-04-19T15:17:29.117Z,101602.00
2023-04-19T15:19:55.494Z,101623.47
2023-04-19T15:22:21.857Z,101615.25
2023-04-19T15:24:49.634Z,101613.44
2023-04-19T15:27:16.059Z,101593.66
2023-04-19T15:29:42.576Z,101605.31
2023-04-19T15:32:09.122Z,101601.78
2023-04-19T15:34:35.521Z,101601.50
2023-04-19T15:37:01.867Z,101598.44
2023-04-19T15:39:28.234Z,101588.81
2023-04-19T15:41:55.953Z,101616.50
2023-04-19T15:44:22.473Z,101611.69
2023-04-19T15:46:48.918Z,101606.44
2023-04-19T15:49:15.598Z,101612.69
2023-04-19T15:51:42.123Z,101603.28
2023-04-19T15:54:10.158Z,101599.69
2023-04-19T15:56:36.921Z,101587.38
2023-04-19T15:59:04.655Z,101596.75
2023-04-19T16:01:31.081Z,101595.97
2023-04-19T16:03:57.624Z,101590.78
2023-04-19T16:06:24.175Z,101593.91
2023-04-19T16:08:50.665Z,101592.53
2023-04-19T16:11:17.078Z,101598.16
2023-04-19T16:13:43.455Z,101601.19
2023-04-19T16:16:11.220Z,101592.06
2023-04-19T16:18:37.842Z,101588.69
2023-04-19T16:21:04.740Z,101595.25
2023-04-19T16:23:31.171Z,101592.81
2023-04-19T16:25:57.570Z,101587.03
2023-04-19T16:28:23.955Z,101593.16
2023-04-19T16:30:50.350Z,101578.00
2023-04-19T16:33:18.130Z,101585.94
2023-04-19T16:35:45.070Z,101580.41
2023-04-19T16:38:11.523Z,101576.63
2023-04-19T16:40:37.901Z,101584.69
2023-04-19T16:43:04.304Z,101572.28
2023-04-19T16:45:30.801Z,101592.22
2023-04-19T16:47:57.410Z,101584.72
2023-04-19T16:50:25.404Z,101576.22
2023-04-19T16:53:00.660Z,101580.97
2023-04-19T16:55:27.119Z,101575.31
2023-04-19T16:57:53.556Z,101575.31
2023-04-19T17:00:20.831Z,101574.53
2023-04-19T17:02:47.378Z,101567.69
2023-04-19T17:05:14.054Z,101573.34
2023-04-19T17:07:41.804Z,101566.25
2023-04-19T17:10:09.208Z,101579.78
2023-04-19T17:12:35.757Z,101570.03
2023-04-19T17:15:02.260Z,101575.84
2023-04-19T17:17:28.719Z,101565.97
2023-04-19T17:19:56.778Z,101578.00
2023-04-19T17:22:23.472Z,101579.97
2023-04-19T17:24:51.375Z,101585.69
2023-04-19T17:27:17.735Z,101574.59
2023-04-19T17:29:44.128Z,101580.53
2023-04-19T17:32:10.582Z,101584.47
2023-04-19T17:34:37.245Z,101586.84
2023-04-19T17:37:03.730Z,101584.97
2023-04-19T17:39:30.099Z,101578.47
2023-04-19T17:41:57.855Z,101580.22
2023-04-19T17:44:24.289Z,101575.22
2023-04-19T17:46:50.762Z,101587.59
2023-04-19T17:49:17.540Z,101585.19
2023-04-19T17:51:44.009Z,101581.56
2023-04-19T17:54:10.546Z,101587.06
2023-04-19T17:56:36.896Z,101586.97
2023-04-19T17:59:04.628Z,101584.94
2023-04-19T18:01:31.084Z,101586.72
2023-04-19T18:03:57.619Z,101587.66
2023-04-19T18:06:24.173Z,101582.50
2023-04-19T18:08:50.641Z,101601.81
2023-04-19T18:11:17.014Z,101597.34
2023-04-19T18:13:43.426Z,101598.69
2023-04-19T18:16:11.219Z,101587.50
2023-04-19T18:18:38.790Z,101587.94
2023-04-19T18:21:05.571Z,101591.06
2023-04-19T18:23:31.955Z,101591.91
2023-04-19T18:26:01.031Z,101600.50
2023-04-19T18:28:27.459Z,101601.47
2023-04-19T18:30:54.163Z,101600.84
2023-04-19T18:33:21.898Z,101600.78
2023-04-19T18:35:48.262Z,101600.50
2023-04-19T18:38:14.735Z,101606.16
2023-04-19T18:40:41.093Z,101608.63
2023-04-19T18:43:07.491Z,101599.47
2023-04-19T18:45:34.058Z,101618.63
2023-04-19T18:48:00.760Z,101611.09
2023-04-19T18:50:29.792Z,101615.34
2023-04-19T18:52:56.195Z,101620.88
2023-04-19T18:55:22.882Z,101613.63
2023-04-19T18:57:49.285Z,101619.00
2023-04-19T19:00:16.409Z,101625.06
2023-04-19T19:02:43.984Z,101623.13
2023-04-19T19:05:13.836Z,101619.25
2023-04-19T19:07:42.123Z,101616.44
2023-04-19T19:12:38.639Z,101625.34
2023-04-19T19:15:06.778Z,101617.28
2023-04-19T19:17:33.264Z,101615.91
2023-04-19T19:20:00.234Z,101611.94
2023-04-19T19:22:28.980Z,101625.28
2023-04-19T19:24:57.006Z,101633.78
2023-04-19T19:27:23.724Z,101621.91
2023-04-19T19:29:50.156Z,101620.25
2023-04-19T19:32:16.896Z,101611.47
2023-04-19T19:34:54.717Z,101609.72
2023-04-19T19:37:26.258Z,101609.16
2023-04-19T19:39:52.659Z,101605.31
2023-04-19T19:42:20.473Z,101611.63
2023-04-19T19:44:46.886Z,101619.75
2023-04-19T19:47:13.378Z,101619.69
2023-04-19T19:50:01.951Z,101616.69
2023-04-19T19:52:27.788Z,101634.72
2023-04-19T19:54:54.206Z,101646.56
2023-04-19T19:58:10.396Z,101618.63
2023-04-19T20:02:54.948Z,101608.97
2023-04-19T20:05:23.399Z,101606.69
2023-04-19T20:10:19.786Z,101583.50
2023-04-19T20:12:47.653Z,101561.50
2023-04-19T20:15:14.140Z,101567.25
2023-04-19T20:17:41.349Z,101561.00
2023-04-19T20:20:09.315Z,101557.63
2023-04-19T20:22:35.991Z,101561.25
2023-04-19T20:25:02.406Z,101545.44
2023-04-19T20:27:29.029Z,101546.84
2023-04-19T20:29:56.834Z,101542.38
2023-04-19T20:32:23.502Z,101562.63
2023-04-19T20:34:50.056Z,101553.34
2023-04-19T20:37:16.606Z,101541.16
2023-04-19T20:39:42.988Z,101556.59
2023-04-19T20:42:09.425Z,101551.13
2023-04-19T20:44:35.789Z,101540.59
2023-04-19T20:47:03.609Z,101596.81
2023-04-19T20:49:30.153Z,101540.09
2023-04-19T20:51:59.405Z,101547.59
2023-04-19T20:54:25.905Z,101556.03
2023-04-19T20:56:53.071Z,101529.75
2023-04-19T20:59:19.685Z,101535.69
2023-04-19T21:01:46.112Z,101517.88
2023-04-19T21:04:14.121Z,101518.91
2023-04-19T21:06:40.647Z,101519.38
2023-04-19T21:09:07.030Z,101504.09
2023-04-19T21:11:33.438Z,101506.34
2023-04-19T21:13:59.814Z,101505.50
2023-04-19T21:16:26.366Z,101507.44
2023-04-19T21:18:52.808Z,101491.94
2023-04-19T21:21:20.503Z,101490.66
2023-04-19T21:23:46.877Z,101482.78
2023-04-19T21:26:13.290Z,101490.25
2023-04-19T21:28:39.694Z,101477.50
2023-04-19T21:31:06.103Z,101479.44
2023-04-19T21:33:32.585Z,101481.06
2023-04-19T21:35:58.949Z,101479.25
2023-04-19T21:38:26.626Z,101470.59
2023-04-19T21:40:53.074Z,101463.09
2023-04-19T21:43:19.511Z,101463.38
2023-04-19T21:45:45.897Z,101463.63
2023-04-19T21:48:12.322Z,101469.16
2023-04-19T21:50:38.704Z,101465.03
2023-04-19T21:53:05.182Z,101458.94
2023-04-19T21:55:32.891Z,101479.06
2023-04-19T21:57:59.265Z,101459.44
2023-04-19T22:00:25.628Z,101451.72
2023-04-19T22:02:52.111Z,101461.09
2023-04-19T22:05:18.605Z,101460.63
2023-04-19T22:07:44.991Z,101452.25
2023-04-19T22:10:11.442Z,101459.09
2023-04-19T22:12:45.310Z,101448.41
2023-04-19T22:15:21.877Z,101452.75
2023-04-19T22:17:48.304Z,101452.81
2023-04-19T22:20:14.763Z,101450.03
2023-04-19T22:22:41.422Z,101443.56
2023-04-19T22:25:08.732Z,101454.38
2023-04-19T22:27:35.187Z,101452.88
2023-04-19T22:30:03.146Z,101444.91
2023-04-19T22:32:29.607Z,101447.31
2023-04-19T22:34:55.973Z,101440.25
2023-04-19T22:37:22.388Z,101432.25
2023-04-19T22:39:48.789Z,101433.84
2023-04-19T22:42:15.185Z,101431.03
2023-04-19T22:44:41.776Z,101427.63
2023-04-19T22:47:09.499Z,101421.34
2023-04-19T22:49:35.936Z,101426.22
2023-04-19T22:52:02.592Z,101424.09
2023-04-19T22:54:28.990Z,101436.47
2023-04-19T22:56:55.396Z,101431.13
2023-04-19T22:59:21.848Z,101425.53
2023-04-19T23:01:48.285Z,101430.38
2023-04-19T23:04:16.077Z,101426.00
2023-04-19T23:06:43.395Z,101423.88
2023-04-19T23:09:09.946Z,101416.38
2023-04-19T23:11:36.385Z,101408.88
2023-04-19T23:14:02.918Z,101403.47
2023-04-19T23:16:29.296Z,101420.16
2023-04-19T23:18:55.744Z,101428.50
2023-04-19T23:21:23.504Z,101423.44
2023-04-19T23:23:50.174Z,101426.38
2023-04-19T23:26:16.589Z,101411.44
2023-04-19T23:28:43.107Z,101416.91
2023-04-19T23:31:09.533Z,101411.88
2023-04-19T23:33:35.918Z,101408.78
2023-04-19T23:36:02.321Z,101419.41
2023-04-19T23:38:30.046Z,101414.22
2023-04-19T23:40:56.441Z,101416.41
2023-04-19T23:43:22.991Z,101419.41
2023-04-19T23:45:49.389Z,101424.09
2023-04-19T23:48:15.756Z,101423.06
2023-04-19T23:50:42.311Z,101413.72
2023-04-19T23:53:08.756Z,101405.81
2023-04-19T23:55:37.508Z,101404.88
2023-04-19T23:58:04.176Z,101404.19
